createdAt,value
2023-04-21T00:00:51.564Z,6.60
2023-04-21T00:03:20.373Z,6.60
2023-04-21T00:05:48.500Z,6.60
2023-04-21T00:08:15.834Z,6.50
2023-04-21T00:10:42.632Z,6.60
2023-04-21T00:13:09.565Z,6.60
2023-04-21T00:15:38.556Z,6.60
2023-04-21T00:18:06.306Z,6.70
2023-04-21T00:20:33.297Z,6.70
2023-04-21T00:23:00.275Z,6.70
2023-04-21T00:25:27.033Z,6.80
2023-04-21T00:27:53.867Z,6.80
2023-04-21T00:30:20.695Z,6.80
2023-04-21T00:32:47.603Z,6.80
2023-04-21T00:35:14.466Z,6.80
2023-04-21T00:40:09.114Z,6.90
2023-04-21T00:42:36.081Z,6.90
2023-04-21T00:45:06.305Z,6.90
2023-04-21T00:47:33.178Z,6.90
2023-04-21T00:50:00.101Z,7.00
2023-04-21T00:52:28.113Z,7.00
2023-04-21T00:54:55.196Z,7.00
2023-04-21T00:57:22.053Z,7.00
2023-04-21T00:59:49.893Z,6.90
2023-04-21T01:02:17.569Z,6.90
2023-04-21T01:04:45.713Z,6.90
2023-04-21T01:07:12.826Z,6.90
2023-04-21T01:09:40.110Z,6.80
2023-04-21T01:12:10.576Z,6.80
2023-04-21T01:14:38.379Z,6.80
2023-04-21T01:17:06.317Z,6.70
2023-04-21T01:19:35.777Z,6.70
2023-04-21T01:22:12.422Z,6.60
2023-04-21T01:24:47.139Z,6.50
2023-04-21T01:27:21.245Z,6.50
2023-04-21T01:29:49.179Z,6.40
2023-04-21T01:32:17.425Z,6.30
2023-04-21T01:34:44.590Z,6.30
2023-04-21T01:37:13.242Z,6.30
2023-04-21T01:39:40.510Z,6.30
2023-04-21T01:42:07.361Z,6.30
2023-04-21T01:44:34.508Z,6.30
2023-04-21T01:47:01.654Z,6.20
2023-04-21T01:49:28.422Z,6.20
2023-04-21T01:51:55.161Z,6.10
2023-04-21T01:54:21.904Z,6.10
2023-04-21T01:56:48.850Z,6.00
2023-04-21T01:59:15.795Z,5.90
2023-04-21T02:01:43.245Z,5.80
2023-04-21T02:04:10.179Z,5.80
2023-04-21T02:06:36.977Z,5.80
2023-04-21T02:09:03.753Z,5.70
2023-04-21T02:11:30.561Z,5.70
2023-04-21T02:13:57.317Z,5.70
2023-04-21T02:16:26.786Z,5.60
2023-04-21T02:18:54.199Z,5.60
2023-04-21T02:21:23.852Z,5.60
2023-04-21T02:23:51.214Z,5.60
2023-04-21T02:26:18.530Z,5.50
2023-04-21T02:28:45.470Z,5.60
2023-04-21T02:31:12.344Z,5.50
2023-04-21T02:33:39.208Z,5.50
2023-04-21T02:36:06.176Z,5.50
2023-04-21T02:38:33.059Z,5.50
2023-04-21T02:40:59.896Z,5.40
2023-04-21T02:43:26.857Z,5.40
2023-04-21T02:45:53.589Z,5.40
2023-04-21T02:48:23.204Z,5.40
2023-04-21T02:50:50.650Z,5.40
2023-04-21T02:53:17.400Z,5.30
2023-04-21T02:55:44.240Z,5.30
2023-04-21T02:58:11.162Z,5.30
2023-04-21T03:00:38.045Z,5.30
2023-04-21T03:03:05.180Z,5.30
2023-04-21T03:05:31.983Z,5.20
2023-04-21T03:07:58.714Z,5.20
2023-04-21T03:10:25.484Z,5.10
2023-04-21T03:12:52.280Z,5.00
2023-04-21T03:15:19.679Z,5.00
2023-04-21T03:17:46.505Z,5.00
2023-04-21T03:20:13.412Z,5.00
2023-04-21T03:22:40.280Z,5.00
2023-04-21T03:25:07.730Z,4.90
2023-04-21T03:27:35.002Z,4.90
2023-04-21T03:30:01.747Z,4.90
2023-04-21T03:32:28.663Z,4.80
2023-04-21T03:34:55.492Z,4.90
2023-04-21T03:37:22.444Z,4.80
2023-04-21T03:39:49.339Z,4.80
2023-04-21T03:42:16.100Z,4.80
2023-04-21T03:44:42.843Z,4.80
2023-04-21T03:47:09.651Z,4.70
2023-04-21T03:49:36.418Z,4.80
2023-04-21T03:52:03.310Z,4.80
2023-04-21T03:54:30.197Z,4.70
2023-04-21T03:56:56.924Z,4.70
2023-04-21T03:59:23.664Z,4.60
2023-04-21T04:01:50.638Z,4.60
2023-04-21T04:04:17.540Z,4.60
2023-04-21T04:06:44.480Z,4.50
2023-04-21T04:09:11.379Z,4.50
2023-04-21T04:11:38.172Z,4.40
2023-04-21T04:14:04.927Z,4.40
2023-04-21T04:16:33.702Z,4.40
2023-04-21T04:19:00.559Z,4.40
2023-04-21T04:21:28.665Z,4.30
2023-04-21T04:23:55.893Z,4.30
2023-04-21T04:26:24.839Z,4.30
2023-04-21T04:28:52.371Z,4.30
2023-04-21T04:31:19.678Z,4.30
2023-04-21T04:33:46.475Z,4.20
2023-04-21T04:36:13.387Z,4.20
2023-04-21T04:38:40.403Z,4.10
2023-04-21T04:41:09.113Z,4.10
2023-04-21T04:43:41.939Z,4.00
2023-04-21T04:46:13.625Z,4.00
2023-04-21T04:48:40.696Z,4.00
2023-04-21T04:51:07.510Z,4.00
2023-04-21T04:53:34.280Z,4.00
2023-04-21T04:56:01.153Z,3.90
2023-04-21T04:58:27.944Z,3.90
2023-04-21T05:00:54.712Z,3.90
2023-04-21T05:03:21.669Z,3.90
2023-04-21T05:05:48.797Z,3.90
2023-04-21T05:08:17.868Z,3.90
2023-04-21T05:10:44.992Z,3.80
2023-04-21T05:13:11.800Z,3.80
2023-04-21T05:15:38.586Z,3.90
2023-04-21T05:18:05.443Z,3.80
2023-04-21T05:20:32.326Z,3.80
2023-04-21T05:22:59.068Z,3.80
2023-04-21T05:25:26.122Z,3.90
2023-04-21T05:27:53.350Z,3.90
2023-04-21T05:30:20.253Z,3.90
2023-04-21T05:32:47.119Z,3.90
2023-04-21T05:35:13.916Z,3.90
2023-04-21T05:37:40.983Z,3.90
2023-04-21T05:40:08.013Z,3.90
2023-04-21T05:42:34.835Z,3.90
2023-04-21T05:45:01.681Z,4.00
2023-04-21T05:47:28.562Z,4.00
2023-04-21T05:49:55.780Z,4.00
2023-04-21T05:52:22.581Z,4.10
2023-04-21T05:54:49.413Z,4.10
2023-04-21T05:57:16.883Z,4.20
2023-04-21T05:59:43.922Z,4.20
2023-04-21T06:02:11.504Z,4.30
2023-04-21T06:04:38.742Z,4.30
2023-04-21T06:07:07.072Z,4.30
2023-04-21T06:09:34.451Z,4.40
2023-04-21T06:12:01.982Z,4.40
2023-04-21T06:14:28.776Z,4.50
2023-04-21T06:16:55.538Z,4.50
2023-04-21T06:19:22.353Z,4.50
2023-04-21T06:21:49.208Z,4.60
2023-04-21T06:24:16.330Z,4.60
2023-04-21T06:26:43.153Z,4.70
2023-04-21T06:29:09.882Z,4.70
2023-04-21T06:31:36.712Z,4.80
2023-04-21T06:34:03.545Z,4.90
2023-04-21T06:36:30.305Z,4.90
2023-04-21T06:38:57.110Z,5.00
2023-04-21T06:41:24.980Z,5.10
2023-04-21T06:43:51.796Z,5.20
2023-04-21T06:46:18.738Z,5.20
2023-04-21T06:48:45.561Z,5.30
2023-04-21T06:51:12.318Z,5.50
2023-04-21T06:53:39.052Z,5.60
2023-04-21T06:56:05.960Z,5.70
2023-04-21T06:58:32.694Z,5.80
2023-04-21T07:00:59.512Z,5.90
2023-04-21T07:03:26.528Z,6.00
2023-04-21T07:05:53.388Z,6.10
2023-04-21T07:08:20.122Z,6.20
2023-04-21T07:10:46.989Z,6.30
2023-04-21T07:13:13.797Z,6.30
2023-04-21T07:15:41.045Z,6.50
2023-04-21T07:18:07.875Z,6.50
2023-04-21T07:20:34.720Z,6.70
2023-04-21T07:23:01.531Z,6.80
2023-04-21T07:25:28.283Z,6.90
2023-04-21T07:27:55.090Z,6.90
2023-04-21T07:30:21.958Z,7.00
2023-04-21T07:32:48.753Z,7.30
2023-04-21T07:35:15.849Z,7.30
2023-04-21T07:37:42.659Z,7.50
2023-04-21T07:40:09.761Z,7.50
2023-04-21T07:42:36.486Z,7.70
2023-04-21T07:45:03.755Z,7.80
2023-04-21T07:47:30.609Z,7.90
2023-04-21T07:49:57.506Z,8.00
2023-04-21T07:52:24.506Z,8.10
2023-04-21T07:54:51.658Z,8.30
2023-04-21T07:57:18.385Z,8.30
2023-04-21T07:59:45.221Z,8.40
2023-04-21T08:02:12.015Z,8.50
2023-04-21T08:04:38.925Z,8.50
2023-04-21T08:07:06.263Z,8.70
2023-04-21T08:09:33.205Z,8.80
2023-04-21T08:14:28.110Z,9.10
2023-04-21T08:21:51.277Z,9.60
2023-04-21T08:24:18.215Z,9.70
2023-04-21T08:26:45.775Z,9.90
2023-04-21T08:29:13.544Z,10.10
2023-04-21T08:31:40.436Z,10.40
2023-04-21T08:34:07.391Z,10.60
2023-04-21T08:36:34.648Z,10.90
2023-04-21T08:39:01.636Z,11.10
2023-04-21T08:41:28.452Z,11.20
2023-04-21T08:43:55.389Z,11.60
2023-04-21T08:46:22.972Z,11.90
2023-04-21T08:48:49.884Z,12.40
2023-04-21T08:51:22.209Z,12.30
2023-04-21T08:53:49.095Z,12.60
2023-04-21T08:56:15.938Z,12.90
2023-04-21T08:58:42.735Z,13.00
2023-04-21T09:01:09.620Z,13.10
2023-04-21T09:03:36.633Z,13.60
2023-04-21T09:06:05.585Z,14.00
2023-04-21T09:08:34.663Z,13.90
2023-04-21T09:11:01.842Z,14.00
2023-04-21T09:13:31.505Z,13.80
2023-04-21T09:18:37.114Z,13.80
2023-04-21T09:21:09.757Z,13.90
2023-04-21T09:23:39.990Z,14.50
2023-04-21T09:26:07.384Z,14.90
2023-04-21T09:28:34.123Z,15.30
2023-04-21T09:31:00.929Z,15.10
2023-04-21T09:33:34.383Z,14.90
2023-04-21T09:36:06.170Z,15.20
2023-04-21T09:38:32.910Z,15.00
2023-04-21T09:41:00.001Z,14.80
2023-04-21T09:43:26.781Z,15.10
2023-04-21T09:45:54.561Z,14.90
2023-04-21T09:48:22.635Z,14.60
2023-04-21T09:53:21.383Z,15.50
2023-04-21T09:55:49.373Z,16.00
2023-04-21T09:58:16.832Z,16.10
2023-04-21T10:00:43.755Z,16.10
2023-04-21T10:03:12.161Z,15.90
2023-04-21T10:05:42.084Z,16.30
2023-04-21T10:08:11.789Z,16.30
2023-04-21T10:10:38.879Z,16.30
2023-04-21T10:13:05.833Z,15.80
2023-04-21T10:15:33.591Z,15.80
2023-04-21T10:18:17.398Z,15.60
2023-04-21T10:20:53.914Z,15.60
2023-04-21T10:23:46.724Z,15.50
2023-04-21T10:26:13.535Z,15.20
2023-04-21T10:28:43.150Z,15.50
2023-04-21T10:31:29.573Z,16.20
2023-04-21T10:34:02.504Z,15.90
2023-04-21T10:36:29.279Z,16.00
2023-04-21T10:38:57.461Z,16.80
2023-04-21T10:41:28.302Z,17.60
2023-04-21T10:43:57.945Z,17.10
2023-04-21T10:46:38.188Z,17.10
2023-04-21T10:49:08.847Z,17.30
2023-04-21T10:51:54.350Z,17.10
2023-04-21T10:54:26.053Z,16.70
2023-04-21T10:56:53.799Z,16.30
2023-04-21T10:59:20.930Z,16.20
2023-04-21T11:01:47.822Z,16.50
2023-04-21T11:04:18.324Z,16.70
2023-04-21T11:07:05.114Z,16.90
2023-04-21T11:09:32.233Z,16.70
2023-04-21T11:11:59.521Z,16.40
2023-04-21T11:14:26.287Z,16.30
2023-04-21T11:16:53.141Z,16.70
2023-04-21T11:19:24.318Z,16.50
2023-04-21T11:21:51.166Z,16.50
2023-04-21T11:24:18.086Z,16.60
2023-04-21T11:26:45.092Z,17.10
2023-04-21T11:29:12.246Z,17.60
2023-04-21T11:31:40.154Z,17.70
2023-04-21T11:34:07.204Z,17.40
2023-04-21T11:36:39.025Z,17.10
2023-04-21T11:39:10.589Z,17.50
2023-04-21T11:41:44.256Z,18.10
2023-04-21T11:44:11.944Z,18.00
2023-04-21T11:46:44.635Z,17.90
2023-04-21T11:49:12.443Z,17.50
2023-04-21T11:51:40.224Z,17.20
2023-04-21T11:54:08.175Z,17.00
2023-04-21T11:56:38.646Z,17.00
2023-04-21T11:59:09.266Z,17.30
2023-04-21T12:01:42.393Z,17.00
2023-04-21T12:04:13.648Z,17.30
2023-04-21T12:06:40.533Z,17.80
2023-04-21T12:09:07.306Z,18.30
2023-04-21T12:11:34.462Z,18.50
2023-04-21T12:14:01.604Z,18.90
2023-04-21T12:16:29.088Z,18.50
2023-04-21T12:18:56.774Z,18.00
2023-04-21T12:21:29.528Z,17.70
2023-04-21T12:23:57.208Z,18.00
2023-04-21T12:26:24.122Z,17.50
2023-04-21T12:28:51.471Z,16.80
2023-04-21T12:31:18.762Z,17.00
2023-04-21T12:33:45.712Z,17.10
2023-04-21T12:36:12.545Z,17.10
2023-04-21T12:38:39.315Z,17.70
2023-04-21T12:41:06.174Z,18.30
2023-04-21T12:43:32.956Z,18.50
2023-04-21T12:45:59.917Z,18.50
2023-04-21T12:48:26.748Z,18.20
2023-04-21T12:50:53.574Z,18.40
2023-04-21T12:53:20.361Z,17.80
2023-04-21T12:56:01.096Z,17.20
2023-04-21T12:58:30.878Z,17.00
2023-04-21T13:00:57.664Z,17.50
2023-04-21T13:03:24.602Z,17.70
2023-04-21T13:05:51.816Z,18.20
2023-04-21T13:08:18.559Z,18.30
2023-04-21T13:10:46.013Z,18.10
2023-04-21T13:13:12.867Z,17.80
2023-04-21T13:15:39.671Z,17.30
2023-04-21T13:18:06.463Z,17.70
2023-04-21T13:20:33.225Z,17.90
2023-04-21T13:22:59.976Z,17.50
2023-04-21T13:25:26.961Z,17.50
2023-04-21T13:32:48.614Z,16.30
2023-04-21T13:35:15.535Z,15.60
2023-04-21T13:37:42.369Z,15.30
2023-04-21T13:40:10.130Z,14.80
2023-04-21T13:42:37.943Z,14.80
2023-04-21T13:45:05.500Z,14.90
2023-04-21T13:47:32.812Z,14.90
2023-04-21T13:50:00.042Z,14.60
2023-04-21T13:52:27.158Z,14.50
2023-04-21T13:54:54.337Z,14.40
2023-04-21T13:57:21.326Z,14.20
2023-04-21T13:59:48.093Z,13.60
2023-04-21T14:02:15.031Z,13.40
2023-04-21T14:04:42.220Z,13.50
2023-04-21T14:07:09.377Z,13.30
2023-04-21T14:09:36.177Z,13.10
2023-04-21T14:12:03.563Z,13.10
2023-04-21T14:14:38.838Z,12.90
2023-04-21T14:17:07.511Z,13.00
2023-04-21T14:19:35.190Z,12.80
2023-04-21T14:22:02.497Z,12.80
2023-04-21T14:24:30.509Z,12.80
2023-04-21T14:26:57.618Z,12.60
2023-04-21T14:29:24.426Z,12.50
2023-04-21T14:31:53.454Z,12.60
2023-04-21T14:34:20.376Z,12.30
2023-04-21T14:36:50.067Z,12.30
2023-04-21T14:39:17.091Z,12.30
2023-04-21T14:41:43.933Z,12.20
2023-04-21T14:44:10.826Z,12.20
2023-04-21T14:46:38.128Z,12.30
2023-04-21T14:49:05.923Z,11.90
2023-04-21T14:51:33.038Z,11.90
2023-04-21T14:54:00.084Z,11.90
2023-04-21T14:56:27.047Z,12.00
2023-04-21T14:58:53.824Z,11.90
2023-04-21T15:01:22.089Z,11.70
2023-04-21T15:03:50.106Z,11.90
2023-04-21T15:06:16.897Z,11.60
2023-04-21T15:08:43.689Z,11.70
2023-04-21T15:11:10.521Z,11.80
2023-04-21T15:13:37.678Z,11.70
2023-04-21T15:16:04.904Z,11.50
2023-04-21T15:18:31.637Z,11.50
2023-04-21T15:20:58.370Z,11.20
2023-04-21T15:23:25.150Z,11.40
2023-04-21T15:25:52.316Z,11.50
2023-04-21T15:28:19.073Z,11.20
2023-04-21T15:30:45.931Z,11.30
2023-04-21T15:33:12.824Z,11.40
2023-04-21T15:35:39.620Z,11.40
2023-04-21T15:38:06.517Z,11.30
2023-04-21T15:40:33.379Z,11.40
2023-04-21T15:43:00.220Z,11.40
2023-04-21T15:45:27.024Z,11.50
2023-04-21T15:47:53.878Z,11.30
2023-04-21T15:50:20.742Z,10.90
2023-04-21T15:52:47.604Z,10.80
2023-04-21T15:55:15.299Z,11.00
2023-04-21T15:57:42.066Z,11.00
2023-04-21T16:00:10.467Z,11.00
2023-04-21T16:02:37.775Z,10.80
2023-04-21T16:05:05.054Z,10.90
2023-04-21T16:07:32.031Z,11.00
2023-04-21T16:09:58.875Z,11.00
2023-04-21T16:12:25.733Z,10.80
2023-04-21T16:14:57.687Z,10.50
2023-04-21T16:17:28.482Z,10.30
2023-04-21T16:19:55.566Z,10.50
2023-04-21T16:22:22.390Z,10.30
2023-04-21T16:24:49.886Z,10.20
2023-04-21T16:27:16.958Z,10.40
2023-04-21T16:29:43.684Z,10.40
2023-04-21T16:32:10.660Z,10.40
2023-04-21T16:34:37.849Z,10.60
2023-04-21T16:37:04.840Z,10.60
2023-04-21T16:39:31.568Z,10.60
2023-04-21T16:41:58.413Z,10.60
2023-04-21T16:44:25.220Z,10.50
2023-04-21T16:46:52.005Z,10.60
2023-04-21T16:49:18.844Z,11.10
2023-04-21T16:51:45.707Z,11.60
2023-04-21T16:54:12.465Z,12.10
2023-04-21T16:56:39.380Z,12.60
2023-04-21T16:59:06.876Z,13.00
2023-04-21T17:01:33.668Z,12.10
2023-04-21T17:04:00.649Z,11.80
2023-04-21T17:06:27.539Z,11.70
2023-04-21T17:08:59.888Z,11.90
2023-04-21T17:11:27.616Z,11.70
2023-04-21T17:13:54.862Z,12.30
2023-04-21T17:16:21.663Z,12.80
2023-04-21T17:18:48.526Z,12.90
2023-04-21T17:21:15.348Z,13.30
2023-04-21T17:23:42.137Z,13.20
2023-04-21T17:26:12.253Z,12.90
2023-04-21T17:28:39.847Z,12.50
2023-04-21T17:31:15.077Z,12.40
2023-04-21T17:33:42.596Z,12.30
2023-04-21T17:36:09.350Z,11.50
2023-04-21T17:38:36.130Z,11.40
2023-04-21T17:41:04.591Z,10.90
2023-04-21T17:43:31.439Z,10.90
2023-04-21T17:45:58.248Z,10.30
2023-04-21T17:48:25.046Z,10.10
2023-04-21T17:50:51.760Z,10.00
2023-04-21T17:53:18.959Z,9.90
2023-04-21T17:55:45.846Z,10.00
2023-04-21T17:58:12.763Z,9.90
2023-04-21T18:00:39.637Z,9.80
2023-04-21T18:03:06.614Z,9.90
2023-04-21T18:05:33.828Z,9.90
2023-04-21T18:08:00.889Z,9.90
2023-04-21T18:10:29.795Z,10.00
2023-04-21T18:12:57.325Z,10.00
2023-04-21T18:15:24.338Z,9.90
2023-04-21T18:17:53.154Z,9.90
2023-04-21T18:20:20.390Z,9.90
2023-04-21T18:22:47.492Z,9.90
2023-04-21T18:25:14.339Z,9.90
2023-04-21T18:27:41.200Z,9.80
2023-04-21T18:30:11.398Z,9.80
2023-04-21T18:32:38.769Z,9.80
2023-04-21T18:35:06.365Z,9.70
2023-04-21T18:37:33.433Z,9.80
2023-04-21T18:40:00.348Z,9.80
2023-04-21T18:42:27.247Z,9.70
2023-04-21T18:44:57.659Z,9.70
2023-04-21T18:47:25.066Z,9.60
2023-04-21T18:49:52.692Z,9.60
2023-04-21T18:52:19.438Z,9.60
2023-04-21T18:54:46.214Z,9.50
2023-04-21T18:57:12.975Z,9.50
2023-04-21T18:59:39.689Z,9.50
2023-04-21T19:02:07.588Z,9.40
2023-04-21T19:04:34.890Z,9.40
2023-04-21T19:07:01.971Z,9.40
2023-04-21T19:09:28.930Z,9.40
2023-04-21T19:11:55.808Z,9.40
2023-04-21T19:14:22.685Z,9.40
2023-04-21T19:16:50.764Z,9.40
2023-04-21T19:19:19.384Z,9.30
2023-04-21T19:21:46.169Z,9.30
2023-04-21T19:24:12.896Z,9.20
2023-04-21T19:26:39.673Z,9.10
2023-04-21T19:29:08.736Z,9.10
2023-04-21T19:31:35.716Z,9.10
2023-04-21T19:34:02.447Z,9.10
2023-04-21T19:36:29.269Z,9.00
2023-04-21T19:38:56.016Z,9.10
2023-04-21T19:41:22.840Z,9.10
2023-04-21T19:43:49.609Z,9.20
2023-04-21T19:46:16.557Z,9.20
2023-04-21T19:48:43.335Z,9.20
2023-04-21T19:51:10.091Z,9.20
2023-04-21T19:53:36.974Z,9.20
2023-04-21T19:56:03.747Z,9.20
2023-04-21T19:58:40.247Z,9.10
2023-04-21T20:01:07.492Z,9.00
2023-04-21T20:03:34.620Z,8.90
2023-04-21T20:06:02.298Z,9.00
2023-04-21T20:08:29.338Z,8.90
2023-04-21T20:10:56.135Z,9.00
2023-04-21T20:13:22.856Z,9.00
2023-04-21T20:15:49.730Z,8.90
2023-04-21T20:18:16.592Z,8.90
2023-04-21T20:20:43.391Z,8.80
2023-04-21T20:23:10.281Z,8.80
2023-04-21T20:25:37.091Z,8.80
2023-04-21T20:28:03.864Z,8.80
2023-04-21T20:30:30.716Z,8.80
2023-04-21T20:32:57.564Z,8.70
2023-04-21T20:35:24.313Z,8.70
2023-04-21T20:37:53.430Z,8.70
2023-04-21T20:40:21.782Z,8.70
2023-04-21T20:42:49.467Z,8.60
2023-04-21T20:45:17.413Z,8.60
2023-04-21T20:47:44.454Z,8.60
2023-04-21T20:50:11.459Z,8.50
2023-04-21T20:52:38.277Z,8.50
2023-04-21T20:55:05.317Z,8.50
2023-04-21T20:57:33.022Z,8.40
2023-04-21T20:59:59.835Z,8.40
2023-04-21T21:02:26.787Z,8.40
2023-04-21T21:04:53.628Z,8.40
2023-04-21T21:07:20.381Z,8.30
2023-04-21T21:09:47.192Z,8.30
2023-04-21T21:12:13.948Z,8.30
2023-04-21T21:14:40.712Z,8.20
2023-04-21T21:17:08.286Z,8.10
2023-04-21T21:19:35.310Z,8.10
2023-04-21T21:22:02.217Z,8.00
2023-04-21T21:24:29.092Z,8.00
2023-04-21T21:26:57.312Z,8.00
2023-04-21T21:29:24.328Z,7.90
2023-04-21T21:31:51.252Z,7.90
2023-04-21T21:34:18.131Z,7.80
2023-04-21T21:36:44.870Z,7.80
2023-04-21T21:39:11.734Z,7.80
2023-04-21T21:41:38.551Z,7.80
2023-04-21T21:44:06.518Z,7.70
2023-04-21T21:46:36.430Z,7.70
2023-04-21T21:49:03.279Z,7.70
2023-04-21T21:51:30.008Z,7.70
2023-04-21T21:53:56.763Z,7.70
2023-04-21T21:56:25.721Z,7.60
2023-04-21T21:58:52.925Z,7.60
2023-04-21T22:01:19.726Z,7.50
2023-04-21T22:03:47.398Z,7.50
2023-04-21T22:06:16.960Z,7.50
2023-04-21T22:08:44.232Z,7.50
2023-04-21T22:11:11.023Z,7.50
2023-04-21T22:13:37.776Z,7.50
2023-04-21T22:16:04.806Z,7.40
2023-04-21T22:18:31.586Z,7.40
2023-04-21T22:20:59.123Z,7.30
2023-04-21T22:23:26.117Z,7.30
2023-04-21T22:25:53.094Z,7.30
2023-04-21T22:28:19.882Z,7.30
2023-04-21T22:30:46.723Z,7.30
2023-04-21T22:33:13.552Z,7.30
2023-04-21T22:35:40.602Z,7.20
2023-04-21T22:38:07.411Z,7.20
2023-04-21T22:40:34.258Z,7.20
2023-04-21T22:43:01.008Z,7.20
2023-04-21T22:45:27.975Z,7.20
2023-04-21T22:47:55.853Z,7.20
2023-04-21T22:50:22.778Z,7.10
2023-04-21T22:52:49.583Z,7.10
2023-04-21T22:55:16.415Z,7.00
2023-04-21T22:57:43.188Z,7.00
2023-04-21T23:00:11.117Z,7.00
2023-04-21T23:02:38.157Z,6.90
2023-04-21T23:05:05.469Z,6.90
2023-04-21T23:07:32.287Z,6.90
2023-04-21T23:09:59.174Z,6.90
2023-04-21T23:12:26.096Z,6.80
2023-04-21T23:14:52.983Z,6.80
2023-04-21T23:17:19.728Z,6.80
2023-04-21T23:19:46.494Z,6.70
2023-04-21T23:22:13.264Z,6.70
2023-04-21T23:24:40.004Z,6.70
2023-04-21T23:27:06.747Z,6.60
2023-04-21T23:29:33.624Z,6.60
2023-04-21T23:32:00.585Z,6.60
2023-04-21T23:34:27.491Z,6.50
2023-04-21T23:36:54.237Z,6.50
2023-04-21T23:39:22.465Z,6.40
2023-04-21T23:41:49.753Z,6.40
2023-04-21T23:44:16.535Z,6.30
2023-04-21T23:49:18.301Z,6.30
2023-04-21T23:51:45.198Z,6.30
2023-04-21T23:54:11.946Z,6.30
2023-04-21T23:56:38.842Z,6.20
2023-04-21T23:59:06.428Z,6.20
